Aviation Digital Data Service (ADDS)

Output produced by METARs form (1052 UTC 17 January 2017)
found at http://aviationweather.gov/adds/metars/
 
KJHW 170903Z 1709/1806 15006KT P6SM -RA OVC006 
     FM171000 14008KT 2SM -RA OVC006 
     FM171800 18012KT 3SM -RA OVC005 
     FM172300 22007KT 3SM BR VCSH BKN003 
     FM180200 24008KT 5SM -SHRA OVC003 AMD LTD TO CLD VIS AND WIND